createdAt,value
2017-11-14T00:00:43.757Z,8.48
2017-11-14T00:03:12.246Z,8.50
2017-11-14T00:05:40.772Z,7.47
2017-11-14T00:08:08.490Z,8.80
2017-11-14T00:10:36.966Z,7.72
2017-11-14T00:13:05.443Z,8.32
2017-11-14T00:15:33.928Z,7.62
2017-11-14T00:18:02.412Z,8.40
2017-11-14T00:20:30.887Z,7.40
2017-11-14T00:22:59.375Z,7.82
2017-11-14T00:25:27.874Z,7.43
2017-11-14T00:27:55.673Z,8.82
2017-11-14T00:30:24.174Z,7.15
2017-11-14T00:32:51.888Z,9.07
2017-11-14T00:35:19.620Z,8.35
2017-11-14T00:37:47.342Z,8.48
2017-11-14T00:40:15.059Z,8.23
2017-11-14T00:42:43.537Z,7.57
2017-11-14T00:45:12.028Z,8.02
2017-11-14T00:47:40.503Z,8.60
2017-11-14T00:50:08.998Z,8.32
2017-11-14T00:52:37.475Z,10.00
2017-11-14T00:55:05.981Z,8.88
2017-11-14T00:57:33.706Z,10.90
2017-11-14T01:00:02.198Z,10.82
2017-11-14T01:02:30.675Z,10.43
2017-11-14T01:04:59.201Z,10.73
2017-11-14T01:07:26.958Z,10.52
2017-11-14T01:09:54.684Z,8.90
2017-11-14T01:12:23.167Z,10.27
2017-11-14T01:14:51.663Z,9.07
2017-11-14T01:17:19.382Z,8.75
2017-11-14T01:19:47.107Z,9.07
2017-11-14T01:22:14.816Z,10.40
2017-11-14T01:24:42.532Z,9.98
2017-11-14T01:27:10.246Z,9.50
2017-11-14T01:29:37.967Z,8.68
2017-11-14T01:32:05.700Z,9.45
2017-11-14T01:34:34.207Z,9.82
2017-11-14T01:37:01.927Z,9.43
2017-11-14T01:39:29.696Z,8.50
2017-11-14T01:41:57.432Z,10.90
2017-11-14T01:44:25.156Z,9.85
2017-11-14T01:46:52.880Z,8.27
2017-11-14T01:49:20.620Z,8.38
2017-11-14T01:51:48.345Z,9.65
2017-11-14T01:54:16.073Z,8.57
2017-11-14T01:56:43.824Z,8.65
2017-11-14T01:59:11.552Z,8.73
2017-11-14T02:01:39.297Z,8.93
2017-11-14T02:04:07.813Z,9.90
2017-11-14T02:06:35.631Z,8.48
2017-11-14T02:09:04.186Z,9.07
2017-11-14T02:11:31.954Z,9.13
2017-11-14T02:13:59.743Z,10.10
2017-11-14T02:16:28.283Z,10.13
2017-11-14T02:18:56.039Z,10.25
2017-11-14T02:21:23.839Z,9.52
2017-11-14T02:23:51.632Z,10.70
2017-11-14T02:26:20.195Z,8.68
2017-11-14T02:28:47.979Z,10.85
2017-11-14T02:31:16.560Z,10.10
2017-11-14T02:33:45.113Z,12.73
2017-11-14T02:36:12.896Z,10.18
2017-11-14T02:38:40.698Z,10.63
2017-11-14T02:41:08.478Z,8.93
2017-11-14T02:43:36.256Z,11.30
2017-11-14T02:46:04.043Z,10.65
2017-11-14T02:48:31.791Z,10.00
2017-11-14T02:50:59.557Z,9.70
2017-11-14T02:53:27.327Z,9.95
2017-11-14T02:55:55.091Z,9.40
2017-11-14T02:58:22.812Z,8.85
2017-11-14T03:00:50.542Z,8.32
2017-11-14T03:03:18.288Z,8.80
2017-11-14T03:05:46.012Z,8.77
2017-11-14T03:08:13.731Z,9.38
2017-11-14T03:10:41.499Z,9.00
2017-11-14T03:13:09.264Z,8.77
2017-11-14T03:15:37.039Z,8.52
2017-11-14T03:18:04.792Z,8.40
2017-11-14T03:20:32.555Z,8.07
2017-11-14T03:23:00.305Z,8.93
2017-11-14T03:25:28.048Z,8.85
2017-11-14T03:27:55.777Z,7.70
2017-11-14T03:30:24.320Z,8.10
2017-11-14T03:32:52.083Z,8.60
2017-11-14T03:35:19.814Z,8.75
2017-11-14T03:37:47.586Z,9.02
2017-11-14T03:40:15.360Z,8.63
2017-11-14T03:42:43.106Z,8.20
2017-11-14T03:45:10.859Z,8.80
2017-11-14T03:47:38.615Z,9.45
2017-11-14T03:50:07.114Z,9.02
2017-11-14T03:52:34.874Z,8.98
2017-11-14T03:55:02.624Z,7.72
2017-11-14T03:57:31.111Z,8.00
2017-11-14T03:59:59.636Z,9.38
2017-11-14T04:02:27.415Z,7.72
2017-11-14T04:04:55.179Z,8.45
2017-11-14T04:07:22.955Z,9.75
2017-11-14T04:09:50.691Z,7.60
2017-11-14T04:12:18.467Z,7.87
2017-11-14T04:14:46.172Z,8.60
2017-11-14T04:17:14.647Z,7.93
2017-11-14T04:19:43.127Z,7.95
2017-11-14T04:22:11.611Z,7.62
2017-11-14T04:24:40.095Z,8.25
2017-11-14T04:27:08.567Z,9.55
2017-11-14T04:29:36.291Z,8.95
2017-11-14T04:32:04.044Z,8.32
2017-11-14T04:34:31.771Z,9.15
2017-11-14T04:37:00.248Z,9.25
2017-11-14T04:39:28.746Z,10.50
2017-11-14T04:41:57.231Z,9.80
2017-11-14T04:44:24.950Z,8.75
2017-11-14T04:46:52.668Z,8.88
2017-11-14T04:49:20.374Z,9.75
2017-11-14T04:51:48.100Z,9.70
2017-11-14T04:54:15.844Z,9.98
2017-11-14T04:56:44.337Z,9.25
2017-11-14T04:59:12.045Z,8.90
2017-11-14T05:01:39.762Z,8.52
2017-11-14T05:04:07.480Z,7.72
2017-11-14T05:06:35.185Z,8.63
2017-11-14T05:09:02.987Z,8.55
2017-11-14T05:11:30.710Z,8.82
2017-11-14T05:13:59.182Z,8.35
2017-11-14T05:16:34.815Z,8.88
2017-11-14T05:19:02.700Z,7.62
2017-11-14T05:21:31.185Z,8.95
2017-11-14T05:23:58.964Z,8.25
2017-11-14T05:26:26.708Z,10.85
2017-11-14T05:28:55.203Z,9.70
2017-11-14T05:31:23.694Z,10.82
2017-11-14T05:33:51.437Z,10.18
2017-11-14T05:36:19.925Z,10.68
2017-11-14T05:38:48.423Z,10.93
2017-11-14T05:41:16.162Z,10.65
2017-11-14T05:43:43.891Z,12.05
2017-11-14T05:46:11.763Z,11.48
2017-11-14T05:48:39.491Z,11.40
2017-11-14T05:51:07.233Z,9.80
2017-11-14T05:53:35.742Z,10.77
2017-11-14T05:56:03.474Z,11.20
2017-11-14T05:58:31.967Z,10.65
2017-11-14T06:01:00.465Z,11.50
2017-11-14T06:03:28.198Z,9.85
2017-11-14T06:05:56.692Z,9.20
2017-11-14T06:08:25.187Z,10.23
2017-11-14T06:10:52.938Z,10.40
2017-11-14T06:13:20.679Z,11.70
2017-11-14T06:15:48.454Z,13.30
2017-11-14T06:18:16.194Z,12.35
2017-11-14T06:20:43.923Z,11.02
2017-11-14T06:23:11.663Z,12.52
2017-11-14T06:25:40.152Z,11.05
2017-11-14T06:28:07.875Z,10.25
2017-11-14T06:30:35.603Z,11.90
2017-11-14T06:33:03.359Z,11.32
2017-11-14T06:35:31.082Z,11.57
2017-11-14T06:37:58.798Z,12.35
2017-11-14T06:40:26.524Z,9.80
2017-11-14T06:42:54.319Z,10.73
2017-11-14T06:45:22.050Z,10.85
2017-11-14T06:47:50.559Z,11.52
2017-11-14T06:50:18.314Z,10.90
2017-11-14T06:52:46.064Z,12.93
2017-11-14T06:55:14.551Z,12.00
2017-11-14T06:57:43.027Z,12.43
2017-11-14T07:00:11.555Z,11.80
2017-11-14T07:02:39.286Z,11.48
2017-11-14T07:05:07.053Z,11.05
2017-11-14T07:07:34.782Z,10.82
2017-11-14T07:10:02.507Z,10.40
2017-11-14T07:12:30.227Z,10.80
2017-11-14T07:14:58.718Z,10.02
2017-11-14T07:17:27.206Z,12.02
2017-11-14T07:19:54.923Z,10.15
2017-11-14T07:22:22.662Z,12.10
2017-11-14T07:24:50.388Z,10.82
2017-11-14T07:27:18.927Z,10.48
2017-11-14T07:29:46.672Z,10.02
2017-11-14T07:32:14.407Z,10.55
2017-11-14T07:34:42.151Z,10.20
2017-11-14T07:37:10.640Z,9.95
2017-11-14T07:39:39.123Z,10.02
2017-11-14T07:42:07.627Z,10.73
2017-11-14T07:44:35.365Z,11.50
2017-11-14T07:47:03.859Z,11.73
2017-11-14T07:49:32.362Z,10.95
2017-11-14T07:52:00.091Z,12.20
2017-11-14T07:54:28.579Z,11.10
2017-11-14T07:56:57.070Z,11.82
2017-11-14T07:59:25.556Z,10.52
2017-11-14T08:01:54.092Z,11.05
2017-11-14T08:04:21.845Z,11.25
2017-11-14T08:06:49.598Z,11.80
2017-11-14T08:09:17.351Z,11.75
2017-11-14T08:11:45.087Z,13.02
2017-11-14T08:14:13.591Z,12.10
2017-11-14T08:16:41.315Z,12.30
2017-11-14T08:19:09.034Z,10.65
2017-11-14T08:21:36.762Z,11.85
2017-11-14T08:24:05.247Z,10.38
2017-11-14T08:26:33.780Z,11.70
2017-11-14T08:29:01.497Z,10.88
2017-11-14T08:31:29.247Z,9.63
2017-11-14T08:33:57.780Z,9.60
2017-11-14T08:36:25.552Z,12.50
2017-11-14T08:38:53.307Z,10.75
2017-11-14T08:41:21.044Z,9.68
2017-11-14T08:43:48.800Z,9.55
2017-11-14T08:46:17.372Z,9.85
2017-11-14T08:48:45.876Z,9.45
2017-11-14T08:51:13.608Z,9.43
2017-11-14T08:53:41.340Z,8.80
2017-11-14T08:56:09.075Z,8.82
2017-11-14T08:58:36.879Z,10.05
2017-11-14T09:01:04.667Z,10.38
2017-11-14T09:03:32.416Z,10.70
2017-11-14T09:06:00.177Z,9.90
2017-11-14T09:08:27.935Z,9.80
2017-11-14T09:10:55.724Z,10.65
2017-11-14T09:13:23.526Z,10.10
2017-11-14T09:15:51.367Z,10.35
2017-11-14T09:18:20.009Z,9.90
2017-11-14T09:20:47.800Z,9.90
2017-11-14T09:23:15.584Z,10.57
2017-11-14T09:25:44.145Z,9.20
2017-11-14T09:28:11.943Z,10.75
2017-11-14T09:30:40.475Z,11.80
2017-11-14T09:33:08.260Z,10.20
2017-11-14T09:35:36.044Z,9.90
2017-11-14T09:38:04.612Z,9.85
2017-11-14T09:40:32.416Z,10.85
2017-11-14T09:43:00.243Z,10.50
2017-11-14T09:45:28.086Z,10.30
2017-11-14T09:47:55.887Z,10.38
2017-11-14T09:50:23.679Z,10.13
2017-11-14T09:52:51.487Z,11.10
2017-11-14T09:55:19.272Z,9.75
2017-11-14T09:57:47.072Z,11.02
2017-11-14T10:00:15.661Z,9.98
2017-11-14T10:02:43.432Z,11.75
2017-11-14T10:05:11.242Z,10.48
2017-11-14T10:07:39.017Z,13.02
2017-11-14T10:10:06.820Z,11.07
2017-11-14T10:12:35.395Z,11.32
2017-11-14T10:15:03.913Z,10.40
2017-11-14T10:17:31.699Z,10.30
2017-11-14T10:19:59.492Z,11.07
2017-11-14T10:22:28.071Z,11.05
2017-11-14T10:24:55.851Z,10.25
2017-11-14T10:27:24.420Z,9.95
2017-11-14T10:29:52.256Z,11.30
2017-11-14T10:32:20.036Z,10.75
2017-11-14T10:34:47.828Z,11.35
2017-11-14T10:37:15.620Z,11.10
2017-11-14T10:39:43.419Z,11.80
2017-11-14T10:42:11.218Z,10.57
2017-11-14T10:44:38.984Z,12.48
2017-11-14T10:47:06.771Z,11.30
2017-11-14T10:49:35.334Z,10.77
2017-11-14T10:52:03.098Z,10.85
2017-11-14T10:54:30.897Z,12.00
2017-11-14T10:56:58.716Z,11.25
2017-11-14T10:59:26.515Z,11.65
2017-11-14T11:01:55.076Z,10.80
2017-11-14T11:04:22.864Z,11.57
2017-11-14T11:06:51.440Z,9.18
2017-11-14T11:09:20.017Z,12.88
2017-11-14T11:11:48.588Z,11.98
2017-11-14T11:14:16.368Z,11.43
2017-11-14T11:16:44.144Z,11.80
2017-11-14T11:19:12.707Z,10.90
2017-11-14T11:21:40.523Z,11.07
2017-11-14T11:24:08.287Z,11.15
2017-11-14T11:26:36.071Z,11.10
2017-11-14T11:29:03.874Z,10.15
2017-11-14T11:31:31.654Z,9.20
2017-11-14T11:34:00.197Z,11.10
2017-11-14T11:36:27.991Z,9.95
2017-11-14T11:38:56.502Z,8.70
2017-11-14T11:41:24.282Z,9.60
2017-11-14T11:43:52.068Z,9.32
2017-11-14T11:46:19.876Z,8.10
2017-11-14T11:48:48.414Z,9.02
2017-11-14T11:51:16.194Z,8.13
2017-11-14T11:53:43.979Z,8.55
2017-11-14T11:56:11.773Z,8.65
2017-11-14T11:58:39.555Z,7.62
2017-11-14T12:01:07.340Z,5.85
2017-11-14T12:03:35.147Z,6.20
2017-11-14T12:06:02.976Z,6.90
2017-11-14T12:08:30.783Z,6.35
2017-11-14T12:10:59.347Z,5.47
2017-11-14T12:13:27.146Z,6.65
2017-11-14T12:15:55.709Z,5.90
2017-11-14T12:18:23.498Z,6.30
2017-11-14T12:20:52.065Z,6.75
2017-11-14T12:23:20.644Z,6.30
2017-11-14T12:25:49.207Z,5.65
2017-11-14T12:28:16.998Z,4.60
2017-11-14T12:30:45.556Z,3.83
2017-11-14T12:33:13.341Z,3.60
2017-11-14T12:35:41.115Z,3.90
2017-11-14T12:38:09.653Z,4.25
2017-11-14T12:40:37.385Z,4.12
2017-11-14T12:43:05.119Z,5.00
2017-11-14T12:45:32.904Z,4.47
2017-11-14T12:48:01.451Z,4.28
2017-11-14T12:50:29.198Z,5.12
2017-11-14T12:52:56.950Z,3.65
2017-11-14T12:55:24.692Z,3.75
2017-11-14T12:57:52.438Z,3.80
2017-11-14T13:00:20.987Z,3.67
2017-11-14T13:02:48.732Z,4.50
2017-11-14T13:05:16.465Z,3.97
2017-11-14T13:07:44.285Z,4.00
2017-11-14T13:10:12.068Z,3.60
2017-11-14T13:12:39.827Z,3.67
2017-11-14T13:15:07.607Z,3.70
2017-11-14T13:17:36.140Z,4.20
2017-11-14T13:20:03.926Z,4.43
2017-11-14T13:22:31.659Z,3.45
2017-11-14T13:24:59.398Z,4.62
2017-11-14T13:27:27.902Z,3.95
2017-11-14T13:29:55.634Z,3.70
2017-11-14T13:32:24.184Z,4.30
2017-11-14T13:34:51.920Z,3.75
2017-11-14T13:37:19.642Z,3.45
2017-11-14T13:39:48.142Z,4.20
2017-11-14T13:42:15.868Z,4.07
2017-11-14T13:44:43.610Z,3.80
2017-11-14T13:47:11.370Z,3.62
2017-11-14T13:49:39.870Z,4.03
2017-11-14T13:52:07.608Z,3.67
2017-11-14T13:54:35.324Z,4.12
2017-11-14T13:57:03.058Z,3.92
2017-11-14T13:59:30.797Z,6.37
2017-11-14T14:01:58.521Z,6.12
2017-11-14T14:04:27.024Z,6.15
2017-11-14T14:06:54.808Z,6.50
2017-11-14T14:09:22.544Z,8.15
2017-11-14T14:11:51.054Z,6.95
2017-11-14T14:14:18.811Z,6.55
2017-11-14T14:16:46.544Z,8.20
2017-11-14T14:19:15.022Z,7.45
2017-11-14T14:21:42.763Z,6.12
2017-11-14T14:24:10.481Z,6.53
2017-11-14T14:26:38.196Z,5.30
2017-11-14T14:29:05.922Z,6.28
2017-11-14T14:31:33.655Z,6.80
2017-11-14T14:34:02.156Z,7.65
2017-11-14T14:36:29.883Z,9.02
2017-11-14T14:38:57.606Z,5.80
2017-11-14T14:41:25.389Z,7.05
2017-11-14T14:43:53.121Z,6.28
2017-11-14T14:46:20.844Z,7.00
2017-11-14T14:48:48.567Z,6.62
2017-11-14T14:51:16.293Z,6.78
2017-11-14T14:53:44.787Z,6.32
2017-11-14T14:56:12.511Z,6.82
2017-11-14T14:58:40.244Z,7.47
2017-11-14T15:01:07.977Z,6.85
2017-11-14T15:03:35.686Z,6.45
2017-11-14T15:06:03.429Z,6.72
2017-11-14T15:08:31.148Z,9.18
2017-11-14T15:10:59.637Z,7.40
2017-11-14T15:13:27.353Z,7.12
2017-11-14T15:15:55.093Z,6.00
2017-11-14T15:18:22.825Z,8.50
2017-11-14T15:20:51.338Z,7.30
2017-11-14T15:23:19.047Z,7.65
2017-11-14T15:25:46.768Z,7.78
2017-11-14T15:28:14.497Z,8.43
2017-11-14T15:30:43.022Z,8.50
2017-11-14T15:33:10.752Z,10.82
2017-11-14T15:35:39.248Z,10.70
2017-11-14T15:38:06.985Z,11.70
2017-11-14T15:40:35.472Z,12.02
2017-11-14T15:43:03.973Z,12.60
2017-11-14T15:45:31.706Z,12.20
2017-11-14T15:47:59.430Z,14.10
2017-11-14T15:50:27.158Z,14.23
2017-11-14T15:52:54.918Z,15.70
2017-11-14T15:55:23.444Z,14.87
2017-11-14T15:57:51.180Z,17.58
2017-11-14T16:00:18.908Z,18.50
2017-11-14T16:02:47.405Z,16.00
2017-11-14T16:05:15.904Z,17.70
2017-11-14T16:07:43.631Z,18.77
2017-11-14T16:10:11.365Z,18.55
2017-11-14T16:12:39.111Z,18.85
2017-11-14T16:15:06.862Z,18.30
2017-11-14T16:17:34.590Z,19.15
2017-11-14T16:20:02.330Z,18.90
2017-11-14T16:22:30.116Z,17.65
2017-11-14T16:24:57.835Z,17.83
2017-11-14T16:27:25.587Z,18.35
2017-11-14T16:29:53.317Z,19.52
2017-11-14T16:32:21.064Z,17.42
2017-11-14T16:34:48.827Z,18.35
2017-11-14T16:37:16.571Z,18.50
2017-11-14T16:39:44.304Z,19.92
2017-11-14T16:42:12.114Z,16.48
2017-11-14T16:44:39.844Z,18.15
2017-11-14T16:47:07.581Z,16.67
2017-11-14T16:49:36.114Z,18.40
2017-11-14T16:52:03.902Z,17.35
2017-11-14T16:54:31.664Z,18.48
2017-11-14T16:56:59.411Z,18.98
2017-11-14T16:59:27.170Z,17.17
2017-11-14T17:01:54.908Z,17.30
2017-11-14T17:04:22.650Z,16.50
2017-11-14T17:06:51.172Z,17.08
2017-11-14T17:09:18.928Z,16.23
2017-11-14T17:11:46.700Z,17.35
2017-11-14T17:14:14.443Z,18.33
2017-11-14T17:16:42.185Z,17.73
2017-11-14T17:19:10.670Z,18.90
2017-11-14T17:21:39.172Z,19.08
2017-11-14T17:24:06.908Z,20.73
2017-11-14T17:26:34.628Z,17.67
2017-11-14T17:29:02.392Z,18.45
2017-11-14T17:31:30.120Z,16.83
2017-11-14T17:33:58.622Z,17.12
2017-11-14T17:36:26.354Z,19.02
2017-11-14T17:38:57.883Z,20.62
2017-11-14T17:41:25.609Z,20.12
2017-11-14T17:43:53.346Z,18.45
2017-11-14T17:46:21.845Z,19.75
2017-11-14T17:48:49.583Z,19.73
2017-11-14T17:51:18.075Z,20.58
2017-11-14T17:53:46.604Z,21.62
2017-11-14T17:56:14.321Z,19.52
2017-11-14T17:58:42.815Z,21.30
2017-11-14T18:01:10.591Z,18.40
2017-11-14T18:03:38.299Z,20.90
2017-11-14T18:06:06.019Z,21.65
2017-11-14T18:08:33.743Z,20.92
2017-11-14T18:11:01.503Z,21.50
2017-11-14T18:13:29.237Z,20.20
2017-11-14T18:15:56.973Z,22.55
2017-11-14T18:18:24.720Z,20.52
2017-11-14T18:20:53.206Z,20.70
2017-11-14T18:23:21.691Z,20.08
2017-11-14T18:25:49.417Z,19.40
2017-11-14T18:28:17.149Z,19.42
2017-11-14T18:30:44.877Z,20.25
2017-11-14T18:33:13.368Z,19.70
2017-11-14T18:35:41.092Z,17.70
2017-11-14T18:38:08.820Z,19.70
2017-11-14T18:40:36.537Z,20.92
2017-11-14T18:43:05.033Z,19.37
2017-11-14T18:45:33.538Z,18.87
2017-11-14T18:48:01.262Z,20.10
2017-11-14T18:50:29.812Z,21.62
2017-11-14T18:52:57.540Z,20.90
2017-11-14T18:55:25.288Z,22.90
2017-11-14T18:57:53.792Z,20.88
2017-11-14T19:00:21.520Z,20.90
2017-11-14T19:02:50.024Z,22.23
2017-11-14T19:05:17.760Z,22.48
2017-11-14T19:07:45.488Z,20.50
2017-11-14T19:10:13.232Z,21.90
2017-11-14T19:12:40.961Z,22.15
2017-11-14T19:15:09.457Z,22.05
2017-11-14T19:17:37.945Z,22.90
2017-11-14T19:20:05.670Z,23.40
2017-11-14T19:22:33.421Z,24.60
2017-11-14T19:25:01.146Z,23.10
2017-11-14T19:27:28.858Z,22.33
2017-11-14T19:29:56.619Z,21.92
2017-11-14T19:32:24.481Z,23.35
2017-11-14T19:34:52.352Z,22.98
2017-11-14T19:37:20.066Z,22.27
2017-11-14T19:39:47.787Z,25.02
2017-11-14T19:42:15.643Z,21.62
2017-11-14T19:44:43.359Z,23.48
2017-11-14T19:47:11.086Z,23.67
2017-11-14T19:49:38.831Z,21.30
2017-11-14T19:52:06.555Z,20.65
2017-11-14T19:54:34.274Z,22.55
2017-11-14T19:57:02.133Z,23.27
2017-11-14T19:59:30.002Z,23.17
2017-11-14T20:01:57.752Z,22.15
2017-11-14T20:04:25.466Z,20.58
2017-11-14T20:06:53.971Z,20.92
2017-11-14T20:09:21.763Z,20.50
2017-11-14T20:11:49.542Z,22.23
2017-11-14T20:14:17.406Z,21.83
2017-11-14T20:16:45.378Z,21.15
2017-11-14T20:19:13.179Z,20.85
2017-11-14T20:21:41.716Z,20.45
2017-11-14T20:24:09.443Z,21.60
2017-11-14T20:26:37.193Z,23.60
2017-11-14T20:29:04.933Z,23.92
2017-11-14T20:31:32.785Z,21.60
2017-11-14T20:34:00.652Z,22.60
2017-11-14T20:36:28.388Z,22.05
2017-11-14T20:38:56.111Z,20.85
2017-11-14T20:41:24.766Z,20.08
2017-11-14T20:43:52.636Z,20.73
2017-11-14T20:46:20.502Z,20.83
2017-11-14T20:48:48.290Z,21.87
2017-11-14T20:51:15.999Z,20.90
2017-11-14T20:53:43.897Z,21.60
2017-11-14T20:56:11.768Z,21.60
2017-11-14T20:58:39.641Z,22.50
2017-11-14T21:01:07.501Z,20.60
2017-11-14T21:03:35.376Z,20.30
2017-11-14T21:06:03.093Z,18.98
2017-11-14T21:08:30.897Z,20.85
2017-11-14T21:10:58.765Z,19.85
2017-11-14T21:13:26.499Z,19.85
2017-11-14T21:15:54.396Z,19.30
2017-11-14T21:18:22.114Z,20.48
2017-11-14T21:20:49.826Z,19.40
2017-11-14T21:23:17.580Z,17.30
2017-11-14T21:25:45.356Z,18.90
2017-11-14T21:28:13.220Z,20.50
2017-11-14T21:30:41.089Z,16.67
2017-11-14T21:33:08.956Z,18.67
2017-11-14T21:35:36.764Z,17.40
2017-11-14T21:38:10.212Z,20.12
2017-11-14T21:40:38.087Z,16.83
2017-11-14T21:43:05.954Z,18.30
2017-11-14T21:45:33.823Z,19.25
2017-11-14T21:48:01.691Z,19.08
2017-11-14T21:50:29.557Z,19.40
2017-11-14T21:52:57.424Z,20.15
2017-11-14T21:55:25.291Z,20.25
2017-11-14T21:57:53.100Z,19.83
2017-11-14T22:00:21.741Z,20.12
2017-11-14T22:02:49.611Z,18.62
2017-11-14T22:05:17.340Z,18.77
2017-11-14T22:07:45.140Z,20.00
2017-11-14T22:10:13.006Z,17.87
2017-11-14T22:12:40.749Z,18.90
2017-11-14T22:15:08.641Z,19.08
2017-11-14T22:17:36.506Z,20.17
2017-11-14T22:20:04.376Z,20.08
2017-11-14T22:22:32.240Z,19.35
2017-11-14T22:25:00.108Z,17.48
2017-11-14T22:27:27.840Z,17.87
2017-11-14T22:29:55.640Z,18.65
2017-11-14T22:32:23.506Z,18.52
2017-11-14T22:34:51.372Z,20.52
2017-11-14T22:37:19.167Z,19.87
2017-11-14T22:39:47.005Z,18.60
2017-11-14T22:42:14.883Z,19.37
2017-11-14T22:44:42.741Z,17.92
2017-11-14T22:47:10.607Z,19.10
2017-11-14T22:49:38.475Z,18.62
2017-11-14T22:52:06.342Z,18.10
2017-11-14T22:54:34.208Z,19.50
2017-11-14T22:57:02.081Z,18.92
2017-11-14T22:59:29.945Z,20.12
2017-11-14T23:01:57.814Z,19.65
2017-11-14T23:04:25.680Z,17.90
2017-11-14T23:06:53.547Z,18.70
2017-11-14T23:09:21.414Z,18.42
2017-11-14T23:11:49.286Z,19.75
2017-11-14T23:14:17.151Z,18.45
2017-11-14T23:16:45.018Z,18.20
2017-11-14T23:19:12.884Z,19.55
2017-11-14T23:21:40.750Z,17.15
2017-11-14T23:24:09.544Z,20.15
2017-11-14T23:26:37.410Z,19.37
2017-11-14T23:29:05.273Z,17.75
2017-11-14T23:31:33.142Z,18.37
2017-11-14T23:34:01.008Z,17.65
2017-11-14T23:36:28.876Z,19.80
2017-11-14T23:38:56.851Z,19.95
2017-11-14T23:41:24.713Z,19.20
2017-11-14T23:43:52.438Z,20.85
2017-11-14T23:46:20.174Z,18.62
2017-11-14T23:48:48.658Z,19.95
2017-11-14T23:51:17.157Z,18.20
2017-11-14T23:53:44.871Z,18.90
2017-11-14T23:56:12.734Z,19.25
2017-11-14T23:58:40.455Z,18.95
